createdAt,value
2019-02-28T00:02:29.565Z,48.57
2019-02-28T00:05:05.908Z,46.27
2019-02-28T00:07:33.960Z,44.83
2019-02-28T00:10:06.341Z,47.00
2019-02-28T00:12:38.243Z,49.73
2019-02-28T00:15:10.066Z,47.07
2019-02-28T00:17:43.604Z,45.13
2019-02-28T00:20:15.976Z,48.73
2019-02-28T00:22:49.218Z,47.50
2019-02-28T00:25:20.719Z,50.73
2019-02-28T00:27:52.807Z,46.67
2019-02-28T00:30:24.936Z,42.30
2019-02-28T00:32:59.203Z,44.00
2019-02-28T00:35:29.681Z,43.00
2019-02-28T00:38:01.207Z,42.73
2019-02-28T00:40:32.509Z,42.37
2019-02-28T00:43:04.105Z,44.23
2019-02-28T00:45:37.137Z,47.93
2019-02-28T00:48:08.703Z,45.27
2019-02-28T00:50:40.028Z,45.10
2019-02-28T00:53:12.628Z,45.03
2019-02-28T00:55:45.971Z,44.23
2019-02-28T00:58:17.255Z,47.43
2019-02-28T01:00:48.538Z,45.90
2019-02-28T01:03:20.773Z,45.70
2019-02-28T01:05:53.257Z,44.67
2019-02-28T01:08:24.776Z,42.47
2019-02-28T01:10:56.057Z,45.23
2019-02-28T01:13:28.206Z,43.60
2019-02-28T01:15:59.741Z,46.73
2019-02-28T01:18:34.403Z,45.47
2019-02-28T01:21:04.477Z,43.67
2019-02-28T01:23:36.181Z,50.67
2019-02-28T01:26:07.577Z,43.93
2019-02-28T01:28:39.217Z,42.83
2019-02-28T01:31:11.592Z,44.80
2019-02-28T01:33:43.917Z,42.63
2019-02-28T01:36:15.557Z,43.50
2019-02-28T01:38:47.765Z,42.17
2019-02-28T01:41:19.138Z,42.47
2019-02-28T01:43:51.084Z,43.70
2019-02-28T01:46:22.751Z,45.77
2019-02-28T01:48:55.131Z,47.20
2019-02-28T01:51:26.560Z,48.23
2019-02-28T01:53:58.201Z,45.17
2019-02-28T01:56:29.725Z,48.63
2019-02-28T01:59:01.061Z,51.00
2019-02-28T02:01:33.233Z,48.30
2019-02-28T02:04:04.937Z,49.53
2019-02-28T02:06:36.701Z,52.37
2019-02-28T02:09:10.988Z,48.97
2019-02-28T02:11:41.867Z,53.83
2019-02-28T02:14:13.485Z,52.13
2019-02-28T02:16:44.824Z,54.43
2019-02-28T02:19:18.553Z,53.87
2019-02-28T02:21:49.746Z,54.57
2019-02-28T02:24:21.344Z,55.30
2019-02-28T02:26:53.350Z,52.97
2019-02-28T02:29:24.769Z,53.73
2019-02-28T02:31:56.120Z,57.10
2019-02-28T02:34:28.253Z,57.27
2019-02-28T02:37:00.891Z,57.97
2019-02-28T02:39:32.362Z,59.30
2019-02-28T02:42:10.008Z,59.87
2019-02-28T02:44:36.537Z,60.23
2019-02-28T02:47:09.459Z,65.23
2019-02-28T02:49:40.667Z,61.70
2019-02-28T02:52:17.214Z,58.57
2019-02-28T02:54:52.252Z,65.87
2019-02-28T02:57:21.684Z,63.37
2019-02-28T02:59:53.584Z,65.23
2019-02-28T03:02:28.655Z,72.90
2019-02-28T03:04:59.347Z,71.70
2019-02-28T03:07:30.691Z,78.23
2019-02-28T03:10:02.039Z,68.50
2019-02-28T03:12:34.566Z,74.23
2019-02-28T03:15:06.558Z,76.70
2019-02-28T03:17:38.228Z,75.10
2019-02-28T03:20:11.992Z,70.97
2019-02-28T03:22:48.402Z,77.57
2019-02-28T03:25:20.165Z,81.23
2019-02-28T03:27:56.466Z,79.80
2019-02-28T03:30:32.422Z,80.73
2019-02-28T03:32:58.160Z,72.97
2019-02-28T03:35:40.141Z,80.60
2019-02-28T03:38:10.179Z,78.10
2019-02-28T03:40:40.096Z,79.30
2019-02-28T03:43:09.392Z,83.13
2019-02-28T03:45:40.660Z,80.23
2019-02-28T03:48:12.286Z,81.80
2019-02-28T03:50:44.066Z,78.60
2019-02-28T03:53:21.102Z,89.60
2019-02-28T03:55:52.806Z,89.00
2019-02-28T03:58:24.190Z,78.43
2019-02-28T04:00:55.451Z,83.37
2019-02-28T04:03:33.370Z,84.53
2019-02-28T04:06:03.631Z,80.07
2019-02-28T04:08:33.148Z,87.00
2019-02-28T04:11:04.489Z,87.53
2019-02-28T04:13:35.758Z,85.20
2019-02-28T04:16:09.419Z,80.97
2019-02-28T04:18:46.163Z,84.37
2019-02-28T04:21:13.772Z,80.00
2019-02-28T04:23:45.612Z,81.17
2019-02-28T04:26:16.868Z,83.10
2019-02-28T04:28:53.456Z,83.87
2019-02-28T04:31:21.188Z,81.93
2019-02-28T04:33:53.436Z,82.10
2019-02-28T04:36:24.809Z,78.93
2019-02-28T04:38:56.162Z,81.30
2019-02-28T04:41:32.492Z,79.77
2019-02-28T04:44:00.534Z,77.00
2019-02-28T04:46:32.570Z,83.83
2019-02-28T04:49:04.286Z,80.17
2019-02-28T04:51:37.041Z,79.73
2019-02-28T04:54:09.398Z,82.30
2019-02-28T04:56:42.230Z,84.67
2019-02-28T04:59:14.670Z,83.77
2019-02-28T05:01:46.458Z,91.60
2019-02-28T05:04:17.879Z,88.87
2019-02-28T05:06:52.163Z,85.07
2019-02-28T05:09:22.308Z,91.20
2019-02-28T05:11:53.844Z,78.93
2019-02-28T05:14:27.064Z,94.57
2019-02-28T05:16:58.543Z,87.73
2019-02-28T05:19:32.306Z,81.17
2019-02-28T05:22:02.953Z,94.27
2019-02-28T05:24:34.393Z,85.60
2019-02-28T05:27:05.565Z,90.27
2019-02-28T05:29:37.079Z,90.43
2019-02-28T05:32:10.485Z,105.73
2019-02-28T05:34:41.693Z,94.93
2019-02-28T05:37:13.198Z,101.40
2019-02-28T05:39:44.668Z,101.10
2019-02-28T05:42:16.333Z,98.50
2019-02-28T05:44:47.635Z,100.77
2019-02-28T05:47:19.401Z,102.53
2019-02-28T05:49:51.289Z,109.17
2019-02-28T05:52:30.431Z,100.93
2019-02-28T05:55:00.912Z,98.30
2019-02-28T05:57:32.294Z,109.63
2019-02-28T06:00:03.850Z,107.57
2019-02-28T06:02:36.022Z,104.30
2019-02-28T06:05:08.414Z,110.00
2019-02-28T06:07:40.880Z,113.37
2019-02-28T06:10:12.683Z,110.07
2019-02-28T06:12:49.478Z,116.47
2019-02-28T06:15:20.987Z,108.97
2019-02-28T06:17:54.998Z,112.10
2019-02-28T06:20:26.511Z,118.87
2019-02-28T06:22:58.180Z,111.77
2019-02-28T06:25:29.592Z,122.50
2019-02-28T06:28:00.866Z,106.77
2019-02-28T06:30:32.489Z,117.23
2019-02-28T06:33:04.064Z,111.37
2019-02-28T06:35:35.376Z,118.40
2019-02-28T06:38:06.921Z,116.17
2019-02-28T06:40:39.302Z,112.30
2019-02-28T06:43:10.698Z,114.30
2019-02-28T06:45:41.959Z,116.10
2019-02-28T06:48:13.323Z,116.03
2019-02-28T06:50:45.554Z,107.43
2019-02-28T06:53:17.022Z,124.30
2019-02-28T06:55:48.441Z,113.00
2019-02-28T06:58:19.749Z,115.27
2019-02-28T07:00:51.401Z,116.90
2019-02-28T07:03:22.742Z,120.00
2019-02-28T07:05:57.474Z,101.70
2019-02-28T07:08:28.994Z,116.13
2019-02-28T07:11:00.541Z,119.80
2019-02-28T07:13:32.306Z,113.17
2019-02-28T07:16:04.359Z,111.00
2019-02-28T07:18:35.823Z,113.37
2019-02-28T07:21:07.984Z,114.53
2019-02-28T07:23:40.396Z,106.10
2019-02-28T07:26:12.353Z,112.60
2019-02-28T07:28:43.685Z,110.10
2019-02-28T07:31:15.305Z,102.27
2019-02-28T07:33:46.550Z,107.43
2019-02-28T07:36:18.020Z,98.10
2019-02-28T07:38:50.552Z,92.00
2019-02-28T07:41:26.481Z,103.17
2019-02-28T07:44:00.437Z,111.80
2019-02-28T07:46:32.039Z,95.00
2019-02-28T07:49:03.548Z,87.47
2019-02-28T07:51:34.999Z,93.50
2019-02-28T07:54:06.844Z,93.93
2019-02-28T07:56:42.837Z,94.83
2019-02-28T07:59:11.599Z,95.00
2019-02-28T08:01:42.971Z,92.73
2019-02-28T08:04:18.124Z,83.93
2019-02-28T08:06:47.581Z,87.50
2019-02-28T08:09:40.570Z,92.27
2019-02-28T08:12:12.202Z,84.17
2019-02-28T08:14:47.040Z,86.83
2019-02-28T08:17:16.957Z,81.27
2019-02-28T08:19:48.485Z,81.73
2019-02-28T08:22:24.326Z,84.83
2019-02-28T08:24:53.722Z,75.30
2019-02-28T08:27:25.564Z,80.77
2019-02-28T08:29:57.982Z,82.17
2019-02-28T08:32:29.526Z,82.17
2019-02-28T08:35:02.150Z,79.20
2019-02-28T08:37:33.770Z,92.10
2019-02-28T08:40:06.148Z,76.83
2019-02-28T08:42:39.679Z,79.60
2019-02-28T08:45:32.508Z,74.33
2019-02-28T08:48:02.177Z,71.40
2019-02-28T08:50:33.558Z,70.20
2019-02-28T08:53:05.228Z,72.60
2019-02-28T08:55:38.456Z,75.43
2019-02-28T08:58:10.002Z,70.23
2019-02-28T09:00:41.334Z,71.00
2019-02-28T09:03:19.202Z,81.30
2019-02-28T09:05:51.274Z,72.50
2019-02-28T09:08:25.358Z,67.70
2019-02-28T09:10:55.763Z,77.80
2019-02-28T09:13:27.003Z,64.60
2019-02-28T09:15:58.422Z,73.00
2019-02-28T09:18:29.875Z,72.27
2019-02-28T09:21:01.283Z,68.30
2019-02-28T09:23:34.429Z,73.37
2019-02-28T09:26:05.789Z,70.20
2019-02-28T09:28:37.045Z,63.87
2019-02-28T09:31:08.986Z,68.33
2019-02-28T09:33:40.738Z,71.10
2019-02-28T09:36:12.548Z,73.00
2019-02-28T09:38:45.246Z,67.93
2019-02-28T09:41:19.038Z,65.60
2019-02-28T09:43:52.035Z,59.00
2019-02-28T09:46:23.496Z,62.60
2019-02-28T09:48:55.080Z,61.07
2019-02-28T09:51:31.502Z,60.97
2019-02-28T09:53:59.959Z,58.70
2019-02-28T09:56:32.378Z,48.83
2019-02-28T09:59:03.941Z,49.57
2019-02-28T10:01:35.721Z,49.77
2019-02-28T10:04:07.776Z,47.13
2019-02-28T10:06:39.382Z,44.57
2019-02-28T10:09:11.343Z,55.30
2019-02-28T10:11:42.685Z,43.90
2019-02-28T10:14:14.124Z,43.57
2019-02-28T10:16:45.369Z,38.70
2019-02-28T10:19:16.845Z,39.80
2019-02-28T10:21:52.176Z,40.07
2019-02-28T10:24:22.314Z,38.83
2019-02-28T10:26:54.188Z,39.87
2019-02-28T10:29:25.708Z,42.17
2019-02-28T10:31:57.007Z,37.20
2019-02-28T10:34:28.417Z,39.57
2019-02-28T10:37:00.197Z,25.20
2019-02-28T10:39:31.549Z,29.77
2019-02-28T10:42:04.995Z,30.77
2019-02-28T10:44:35.833Z,23.63
2019-02-28T10:47:07.244Z,24.57
2019-02-28T10:49:38.648Z,25.47
2019-02-28T10:52:11.068Z,18.83
2019-02-28T10:54:42.719Z,26.50
2019-02-28T10:57:14.252Z,24.90
2019-02-28T10:59:46.228Z,26.27
2019-02-28T11:02:19.944Z,25.33
2019-02-28T11:04:52.069Z,24.37
2019-02-28T11:07:23.785Z,42.97
2019-02-28T11:09:55.633Z,24.23
2019-02-28T11:12:28.741Z,22.33
2019-02-28T11:15:00.340Z,24.87
2019-02-28T11:17:34.178Z,20.10
2019-02-28T11:20:06.193Z,19.87
2019-02-28T11:22:39.723Z,15.83
2019-02-28T11:25:12.335Z,24.93
2019-02-28T11:27:43.687Z,15.27
2019-02-28T11:30:16.247Z,18.60
2019-02-28T11:32:47.595Z,14.90
2019-02-28T11:35:20.150Z,13.40
2019-02-28T11:37:53.004Z,14.47
2019-02-28T11:40:25.392Z,16.83
2019-02-28T11:42:59.504Z,21.03
2019-02-28T11:45:31.482Z,21.07
2019-02-28T11:48:04.292Z,15.30
2019-02-28T11:50:41.375Z,11.27
2019-02-28T11:53:09.804Z,14.67
2019-02-28T11:55:41.478Z,14.43
2019-02-28T11:58:16.304Z,13.63
2019-02-28T12:00:46.143Z,10.03
2019-02-28T12:03:17.796Z,19.47
2019-02-28T12:05:50.627Z,14.07
2019-02-28T12:08:22.484Z,16.90
2019-02-28T12:10:54.042Z,10.37
2019-02-28T12:13:25.476Z,18.80
2019-02-28T12:15:57.156Z,12.70
2019-02-28T12:18:28.797Z,14.63
2019-02-28T12:21:01.775Z,9.43
2019-02-28T12:23:33.315Z,9.30
2019-02-28T12:26:04.751Z,8.97
2019-02-28T12:28:38.429Z,11.03
2019-02-28T12:31:10.817Z,11.13
2019-02-28T12:33:42.547Z,6.60
2019-02-28T12:36:15.326Z,12.63
2019-02-28T12:38:46.872Z,11.20
2019-02-28T12:41:18.129Z,6.40
2019-02-28T12:43:50.683Z,13.67
2019-02-28T12:46:22.043Z,7.40
2019-02-28T12:48:53.701Z,5.67
2019-02-28T12:51:24.955Z,7.50
2019-02-28T12:53:59.227Z,9.43
2019-02-28T12:56:30.804Z,4.30
2019-02-28T12:59:02.217Z,8.40
2019-02-28T13:01:34.356Z,7.73
2019-02-28T13:04:05.834Z,6.00
2019-02-28T13:06:37.108Z,5.17
2019-02-28T13:09:08.862Z,6.87
2019-02-28T13:11:40.248Z,6.43
2019-02-28T13:14:12.553Z,9.50
2019-02-28T13:16:44.527Z,9.80
2019-02-28T13:19:16.474Z,6.83
2019-02-28T13:21:50.009Z,10.83
2019-02-28T13:24:21.852Z,12.10
2019-02-28T13:26:53.752Z,7.93
2019-02-28T13:29:28.779Z,9.70
2019-02-28T13:32:01.395Z,12.67
2019-02-28T13:34:31.266Z,6.40
2019-02-28T13:37:03.282Z,4.53
2019-02-28T13:39:35.260Z,7.43
2019-02-28T13:42:06.986Z,5.13
2019-02-28T13:44:38.451Z,4.87
2019-02-28T13:47:10.910Z,10.57
2019-02-28T13:49:42.938Z,4.87
2019-02-28T13:52:19.094Z,5.40
2019-02-28T13:54:47.853Z,6.33
2019-02-28T13:57:19.811Z,5.53
2019-02-28T13:59:52.733Z,4.83
2019-02-28T14:02:26.244Z,9.00
2019-02-28T14:04:58.702Z,8.30
2019-02-28T14:07:33.715Z,6.70
2019-02-28T14:10:04.929Z,5.63
2019-02-28T14:12:36.903Z,13.87
2019-02-28T14:15:10.499Z,5.00
2019-02-28T14:17:42.038Z,6.27
2019-02-28T14:20:13.743Z,8.33
2019-02-28T14:22:46.616Z,6.47
2019-02-28T14:25:19.619Z,6.07
2019-02-28T14:27:51.825Z,6.80
2019-02-28T14:30:24.704Z,5.77
2019-02-28T14:32:58.466Z,9.97
2019-02-28T14:35:33.899Z,8.93
2019-02-28T14:38:03.609Z,11.60
2019-02-28T14:40:35.002Z,6.57
2019-02-28T14:43:06.754Z,4.77
2019-02-28T14:45:42.749Z,7.17
2019-02-28T14:48:12.896Z,7.77
2019-02-28T14:50:44.548Z,6.60
2019-02-28T14:53:16.058Z,5.23
2019-02-28T14:55:47.472Z,4.53
2019-02-28T14:58:21.162Z,5.70
2019-02-28T15:00:52.686Z,6.07
2019-02-28T15:03:26.833Z,8.47
2019-02-28T15:05:58.447Z,6.10
2019-02-28T15:08:29.978Z,6.30
2019-02-28T15:11:02.046Z,4.10
2019-02-28T15:13:34.282Z,8.07
2019-02-28T15:16:07.229Z,7.43
2019-02-28T15:18:38.704Z,13.73
2019-02-28T15:21:11.545Z,7.33
2019-02-28T15:23:43.156Z,8.93
2019-02-28T15:26:14.650Z,5.57
2019-02-28T15:28:48.563Z,5.60
2019-02-28T15:31:19.485Z,8.87
2019-02-28T15:33:56.532Z,6.40
2019-02-28T15:36:28.497Z,8.70
2019-02-28T15:39:00.027Z,7.70
2019-02-28T15:41:33.815Z,13.60
2019-02-28T15:44:04.791Z,8.90
2019-02-28T15:46:36.245Z,11.83
2019-02-28T15:49:10.166Z,10.20
2019-02-28T15:51:40.826Z,9.83
2019-02-28T15:54:13.167Z,10.20
2019-02-28T15:56:44.846Z,7.63
2019-02-28T15:59:16.326Z,8.13
2019-02-28T16:01:47.686Z,8.00
2019-02-28T16:04:19.703Z,7.40
2019-02-28T16:06:56.605Z,10.17
2019-02-28T16:09:24.821Z,11.80
2019-02-28T16:11:56.232Z,11.30
2019-02-28T16:14:27.778Z,13.03
2019-02-28T16:17:03.288Z,18.03
2019-02-28T16:19:33.136Z,21.17
2019-02-28T16:22:04.688Z,23.90
2019-02-28T16:24:36.730Z,26.10
2019-02-28T16:27:09.829Z,24.63
2019-02-28T16:29:41.005Z,23.57
2019-02-28T16:32:14.127Z,47.50
2019-02-28T16:34:45.791Z,21.97
2019-02-28T16:37:17.472Z,19.43
2019-02-28T16:39:49.994Z,20.07
2019-02-28T16:42:21.676Z,21.60
2019-02-28T16:44:53.582Z,23.90
2019-02-28T16:47:25.194Z,27.27
2019-02-28T16:49:56.722Z,24.90
2019-02-28T16:52:28.263Z,32.17
2019-02-28T16:54:59.785Z,24.63
2019-02-28T16:57:31.199Z,25.93
2019-02-28T17:00:04.129Z,24.07
2019-02-28T17:02:38.090Z,25.50
2019-02-28T17:05:11.405Z,25.30
2019-02-28T17:07:43.650Z,22.17
2019-02-28T17:10:17.005Z,21.17
2019-02-28T17:13:25.848Z,21.90
2019-02-28T17:16:28.485Z,33.20
2019-02-28T17:19:00.160Z,31.23
2019-02-28T17:21:31.718Z,23.07
2019-02-28T17:24:03.190Z,26.83
2019-02-28T17:27:02.364Z,26.80
2019-02-28T17:30:04.048Z,31.70
2019-02-28T17:32:36.192Z,27.70
2019-02-28T17:35:09.090Z,25.97
2019-02-28T17:37:40.715Z,29.63
2019-02-28T17:40:13.581Z,32.93
2019-02-28T17:42:46.446Z,32.27
2019-02-28T17:45:24.853Z,33.57
2019-02-28T17:48:52.804Z,60.90
2019-02-28T17:51:30.908Z,43.77
2019-02-28T17:54:20.877Z,38.90
2019-02-28T17:57:20.955Z,37.97
2019-02-28T18:00:35.090Z,29.00
2019-02-28T18:03:30.614Z,33.43
2019-02-28T18:06:37.031Z,35.17
2019-02-28T18:09:23.988Z,31.57
2019-02-28T18:12:27.931Z,32.40
2019-02-28T18:15:19.717Z,37.33
2019-02-28T18:18:19.684Z,35.73
2019-02-28T18:21:44.921Z,28.10
2019-02-28T18:25:00.404Z,31.13
2019-02-28T18:27:46.762Z,33.00
2019-02-28T18:31:10.885Z,32.17
2019-02-28T18:34:03.470Z,31.50
2019-02-28T18:36:35.283Z,31.73
2019-02-28T18:39:11.457Z,32.40
2019-02-28T18:41:43.173Z,26.67
2019-02-28T18:44:20.301Z,30.87
2019-02-28T18:46:51.816Z,24.70
2019-02-28T18:49:26.533Z,24.03
2019-02-28T18:51:56.835Z,34.43
2019-02-28T18:54:28.927Z,22.93
2019-02-28T18:57:00.325Z,27.47
2019-02-28T18:59:31.863Z,23.03
2019-02-28T19:02:03.617Z,27.50
2019-02-28T19:04:34.965Z,26.83
2019-02-28T19:07:06.928Z,25.53
2019-02-28T19:09:39.106Z,31.10
2019-02-28T19:12:11.482Z,26.23
2019-02-28T19:14:44.685Z,26.53
2019-02-28T19:17:16.381Z,24.33
2019-02-28T19:19:48.038Z,23.10
2019-02-28T19:22:20.092Z,26.47
2019-02-28T19:24:52.096Z,26.60
2019-02-28T19:27:24.172Z,28.93
2019-02-28T19:29:55.488Z,21.43
2019-02-28T19:32:27.154Z,28.20
2019-02-28T19:34:58.662Z,24.43
2019-02-28T19:37:30.058Z,25.87
2019-02-28T19:40:01.389Z,30.60
2019-02-28T19:42:34.641Z,22.53
2019-02-28T19:45:08.597Z,25.57
2019-02-28T19:47:40.684Z,26.23
2019-02-28T19:50:12.974Z,25.33
2019-02-28T19:52:44.702Z,37.83
2019-02-28T19:55:16.223Z,23.77
2019-02-28T19:57:47.784Z,22.87
2019-02-28T20:00:20.201Z,22.20
2019-02-28T20:02:52.675Z,21.23
2019-02-28T20:05:24.290Z,30.57
2019-02-28T20:07:55.725Z,23.90
2019-02-28T20:10:27.293Z,22.50
2019-02-28T20:12:58.934Z,21.47
2019-02-28T20:15:34.248Z,24.43
2019-02-28T20:18:05.994Z,39.43
2019-02-28T20:20:37.918Z,34.73
2019-02-28T20:23:09.808Z,41.10
2019-02-28T20:25:41.689Z,27.90
2019-02-28T20:28:13.384Z,50.90
2019-02-28T20:30:44.887Z,155.13
2019-02-28T20:33:16.795Z,71.67
2019-02-28T20:35:48.152Z,64.20
2019-02-28T20:38:20.005Z,43.93
2019-02-28T20:40:52.157Z,29.77
2019-02-28T20:43:24.031Z,24.80
2019-02-28T20:45:55.714Z,25.73
2019-02-28T20:48:27.190Z,23.43
2019-02-28T20:50:59.032Z,17.60
2019-02-28T20:53:36.324Z,24.70
2019-02-28T20:56:08.170Z,18.97
2019-02-28T20:58:39.918Z,19.10
2019-02-28T21:01:11.922Z,16.47
2019-02-28T21:03:43.937Z,21.63
2019-02-28T21:06:16.805Z,21.10
2019-02-28T21:08:49.833Z,16.63
2019-02-28T21:11:21.208Z,16.60
2019-02-28T21:13:53.557Z,18.30
2019-02-28T21:16:25.218Z,19.87
2019-02-28T21:18:58.199Z,20.40
2019-02-28T21:21:29.920Z,15.20
2019-02-28T21:24:01.542Z,15.73
2019-02-28T21:26:34.194Z,14.07
2019-02-28T21:29:05.834Z,13.67
2019-02-28T21:31:37.968Z,13.80
2019-02-28T21:34:09.979Z,17.23
2019-02-28T21:36:43.280Z,14.90
2019-02-28T21:39:15.121Z,15.50
2019-02-28T21:41:48.429Z,14.07
2019-02-28T21:44:25.859Z,12.80
2019-02-28T21:46:57.320Z,12.37
2019-02-28T21:49:28.868Z,16.57
2019-02-28T21:52:00.435Z,14.20
2019-02-28T21:54:31.976Z,11.27
2019-02-28T21:57:03.363Z,16.33
2019-02-28T21:59:35.286Z,15.53
2019-02-28T22:02:07.525Z,15.37
2019-02-28T22:04:39.513Z,15.17
2019-02-28T22:07:11.445Z,16.87
2019-02-28T22:09:42.910Z,21.77
2019-02-28T22:12:14.619Z,25.10
2019-02-28T22:14:45.977Z,20.80
2019-02-28T22:17:17.249Z,19.30
2019-02-28T22:19:48.619Z,21.47
2019-02-28T22:22:20.676Z,20.40
2019-02-28T22:24:52.732Z,23.27
2019-02-28T22:27:24.094Z,20.47
2019-02-28T22:29:55.625Z,24.50
2019-02-28T22:32:52.488Z,28.43
2019-02-28T22:35:33.441Z,25.17
2019-02-28T22:38:04.981Z,31.50
2019-02-28T22:40:36.373Z,32.17
2019-02-28T22:43:08.114Z,25.40
2019-02-28T22:45:39.662Z,23.73
2019-02-28T22:48:11.359Z,26.03
2019-02-28T22:50:42.808Z,23.70
2019-02-28T22:53:14.314Z,23.73
2019-02-28T22:55:45.880Z,20.87
2019-02-28T22:58:17.329Z,24.40
2019-02-28T23:01:08.196Z,18.37
2019-02-28T23:03:41.375Z,17.50
2019-02-28T23:06:13.265Z,19.73
2019-02-28T23:08:44.661Z,19.10
2019-02-28T23:11:15.988Z,18.33
2019-02-28T23:13:47.547Z,17.90
2019-02-28T23:16:19.264Z,18.03
2019-02-28T23:18:51.205Z,17.97
2019-02-28T23:21:22.850Z,20.57
2019-02-28T23:23:54.586Z,21.57
2019-02-28T23:26:27.157Z,25.50
2019-02-28T23:29:15.648Z,22.43
2019-02-28T23:32:40.186Z,21.70
2019-02-28T23:35:18.235Z,24.37
2019-02-28T23:37:50.479Z,25.33
2019-02-28T23:40:21.916Z,24.40
2019-02-28T23:42:53.904Z,20.60
2019-02-28T23:45:25.450Z,19.77
2019-02-28T23:47:57.165Z,20.63
2019-02-28T23:50:28.408Z,18.57
2019-02-28T23:52:59.981Z,22.73
2019-02-28T23:55:31.885Z,20.73
2019-02-28T23:58:03.374Z,19.33
